Time;durP1;ratioP1;P1;durP2;ratioP2;P2;SDS_P1;SDS_P2;PMS_P1;PMS_P2;Temp;Humidity;BMP_temperature;BMP_pressure;BME280_temperature;BME280_humidity;BME280_pressure;Samples;Min_cycle;Max_cycle;Signal;HPM_P1;HPM_P2
2022/11/23 00:02:09;;;;;;;23.43;11.77;;;3.10;99.90;;;;;;5080460;28;20437;-44
2022/11/23 00:04:36;;;;;;;22.77;12.00;;;3.10;99.90;;;;;;5072404;28;20470;-40
2022/11/23 00:07:03;;;;;;;19.37;11.60;;;3.10;99.90;;;;;;5074865;28;20446;-42
2022/11/23 00:09:30;;;;;;;38.80;12.87;;;3.10;99.90;;;;;;5079995;28;20455;-46
2022/11/23 00:15:19;;;;;;;31.27;11.07;;;3.10;99.90;;;;;;5069319;28;20469;-53
2022/11/23 00:17:49;;;;;;;27.27;13.50;;;3.10;99.90;;;;;;5075698;28;20438;-54
2022/11/23 00:20:16;;;;;;;24.00;9.23;;;3.10;99.90;;;;;;5067453;28;20439;-47
2022/11/23 00:22:43;;;;;;;29.13;9.37;;;3.10;99.90;;;;;;5077940;28;20443;-51
2022/11/23 00:25:10;;;;;;;26.50;12.20;;;3.10;99.90;;;;;;5074611;28;20927;-52
2022/11/23 00:27:37;;;;;;;27.13;11.20;;;3.10;99.90;;;;;;5070987;28;20474;-56
2022/11/23 00:30:04;;;;;;;26.93;11.93;;;3.20;99.90;;;;;;5077824;28;20435;-51
2022/11/23 00:32:31;;;;;;;21.90;11.93;;;3.00;99.90;;;;;;5078122;28;20454;-59
2022/11/23 00:34:59;;;;;;;21.30;10.47;;;3.00;99.90;;;;;;5078050;28;20462;-55
2022/11/23 00:37:28;;;;;;;19.70;9.30;;;3.00;99.90;;;;;;5077602;28;20526;-54
2022/11/23 00:39:55;;;;;;;19.37;11.77;;;3.00;99.90;;;;;;5078104;28;20490;-53
2022/11/23 00:42:22;;;;;;;26.63;11.10;;;3.00;99.90;;;;;;5078957;28;20461;-45
2022/11/23 00:44:49;;;;;;;32.90;11.20;;;3.10;99.90;;;;;;5078766;28;20467;-49
2022/11/23 00:47:16;;;;;;;30.23;12.23;;;3.00;99.90;;;;;;5079366;28;20455;-46
2022/11/23 00:49:43;;;;;;;14.13;8.60;;;3.00;99.90;;;;;;5074552;28;20508;-45
2022/11/23 00:52:11;;;;;;;23.50;10.63;;;3.00;99.90;;;;;;5079702;28;20474;-52
2022/11/23 00:54:38;;;;;;;21.50;11.50;;;3.00;99.90;;;;;;5078956;28;20503;-54
2022/11/23 00:57:05;;;;;;;20.77;10.73;;;3.00;99.90;;;;;;5071026;28;20458;-57
2022/11/23 00:59:31;;;;;;;21.33;11.27;;;3.00;99.90;;;;;;5074320;28;20424;-49
2022/11/23 01:01:58;;;;;;;29.60;10.30;;;3.00;99.90;;;;;;5078124;28;20475;-53
2022/11/23 01:04:26;;;;;;;23.97;10.97;;;3.00;99.90;;;;;;5077842;28;20467;-56
2022/11/23 01:06:56;;;;;;;26.67;10.37;;;3.00;99.90;;;;;;5077602;28;20451;-55
2022/11/23 01:09:25;;;;;;;23.60;12.17;;;3.00;99.90;;;;;;5077582;28;20455;-51
2022/11/23 01:11:52;;;;;;;19.17;10.90;;;3.00;99.90;;;;;;5077196;28;20467;-55
2022/11/23 01:14:20;;;;;;;18.60;10.83;;;3.00;99.90;;;;;;5077640;28;20443;-54
2022/11/23 01:16:47;;;;;;;24.57;11.33;;;3.00;99.90;;;;;;5077164;28;20487;-53
2022/11/23 01:19:15;;;;;;;20.90;13.13;;;3.00;99.90;;;;;;5077029;28;20451;-54
2022/11/23 01:21:43;;;;;;;20.80;10.57;;;3.00;99.90;;;;;;5076963;28;20436;-51
2022/11/23 01:24:13;;;;;;;28.30;11.40;;;3.00;99.90;;;;;;5077444;28;20408;-56
2022/11/23 01:26:42;;;;;;;17.70;10.67;;;3.00;99.90;;;;;;5076770;28;20428;-51
2022/11/23 01:29:09;;;;;;;19.73;10.13;;;3.00;99.90;;;;;;5076738;28;20451;-54
2022/11/23 01:31:37;;;;;;;20.90;9.57;;;3.00;99.90;;;;;;5070919;28;20480;-58
2022/11/23 01:34:05;;;;;;;23.37;10.07;;;3.00;99.90;;;;;;5071180;28;21628;-53
2022/11/23 01:36:34;;;;;;;22.00;12.13;;;3.00;99.90;;;;;;5076470;28;20455;-53
2022/11/23 01:39:02;;;;;;;20.33;11.60;;;3.00;99.90;;;;;;5076250;28;20435;-54
2022/11/23 01:41:32;;;;;;;23.47;10.23;;;3.10;99.90;;;;;;5076378;28;20466;-51
2022/11/23 01:44:01;;;;;;;20.20;9.33;;;3.10;99.90;;;;;;5077229;28;20436;-54
2022/11/23 01:46:28;;;;;;;23.63;10.53;;;3.20;99.90;;;;;;5076875;28;20463;-55
2022/11/23 01:48:57;;;;;;;26.03;11.33;;;3.20;99.90;;;;;;5077563;28;20428;-58
2022/11/23 01:51:28;;;;;;;21.70;10.70;;;3.20;99.90;;;;;;5077123;28;20424;-53
2022/11/23 01:53:59;;;;;;;17.77;8.53;;;3.20;99.90;;;;;;5077052;28;20779;-57
2022/11/23 01:56:31;;;;;;;29.40;11.13;;;3.30;99.90;;;;;;5077220;28;20467;-55
2022/11/23 01:59:03;;;;;;;29.03;13.10;;;3.30;99.90;;;;;;5076760;28;20494;-50
2022/11/23 02:01:30;;;;;;;22.13;9.20;;;3.30;99.90;;;;;;5076879;28;20447;-56
2022/11/23 02:04:00;;;;;;;23.00;12.13;;;3.30;99.90;;;;;;5076761;28;20439;-54
2022/11/23 02:06:28;;;;;;;16.27;9.20;;;3.40;99.90;;;;;;5077141;28;20431;-51
2022/11/23 02:08:57;;;;;;;22.43;10.43;;;3.40;99.90;;;;;;5076866;28;20443;-48
2022/11/23 02:11:23;;;;;;;19.87;9.27;;;3.40;99.90;;;;;;5064597;28;20641;-52
2022/11/23 02:13:51;;;;;;;20.43;8.20;;;3.40;99.90;;;;;;5076089;28;20439;-56
2022/11/23 02:16:19;;;;;;;19.90;10.43;;;3.40;99.90;;;;;;5076093;28;20479;-56
2022/11/23 02:18:49;;;;;;;26.30;12.30;;;3.40;99.90;;;;;;5076229;28;20435;-58
2022/11/23 02:21:17;;;;;;;14.33;9.00;;;3.40;99.90;;;;;;5076270;28;20818;-50
2022/11/23 02:23:52;;;;;;;27.13;11.17;;;3.40;99.90;;;;;;5076571;28;20491;-51
2022/11/23 02:26:23;;;;;;;23.07;10.23;;;3.50;99.90;;;;;;5075972;28;20434;-50
2022/11/23 02:28:54;;;;;;;14.87;9.47;;;3.50;99.90;;;;;;5076199;28;20428;-52
2022/11/23 02:31:21;;;;;;;16.63;9.53;;;3.50;99.90;;;;;;5075647;28;20434;-55
2022/11/23 02:33:48;;;;;;;25.87;12.17;;;3.60;99.90;;;;;;5075767;28;20527;-53
2022/11/23 02:36:35;;;;;;;19.03;9.67;;;3.60;99.90;;;;;;5075961;28;20475;-54
2022/11/23 02:39:07;;;;;;;22.27;11.60;;;3.50;99.90;;;;;;5075513;28;20452;-56
2022/11/23 02:41:38;;;;;;;20.63;10.30;;;3.50;99.90;;;;;;5075987;28;20487;-50
2022/11/23 02:44:19;;;;;;;20.90;11.27;;;3.60;99.90;;;;;;5075762;28;20416;-55
2022/11/23 02:46:46;;;;;;;23.77;11.57;;;3.50;99.90;;;;;;5076064;28;20439;-53
2022/11/23 02:49:13;;;;;;;19.53;8.97;;;3.60;99.90;;;;;;5075935;28;20447;-53
2022/11/23 02:51:40;;;;;;;22.30;12.20;;;3.60;99.90;;;;;;5072119;28;20440;-56
2022/11/23 02:54:07;;;;;;;21.47;12.00;;;3.60;99.90;;;;;;5068300;28;20498;-53
2022/11/23 02:56:34;;;;;;;16.40;10.23;;;3.70;99.90;;;;;;5075377;28;20475;-56
2022/11/23 02:59:02;;;;;;;16.27;9.57;;;3.60;99.90;;;;;;5071906;28;20447;-56
2022/11/23 03:01:29;;;;;;;25.37;10.50;;;3.50;99.90;;;;;;5069021;28;20499;-54
2022/11/23 03:03:56;;;;;;;24.77;12.20;;;3.50;99.90;;;;;;5063602;28;20586;-51
2022/11/23 03:06:25;;;;;;;19.73;10.47;;;3.50;99.90;;;;;;5075224;28;20455;-53
2022/11/23 03:08:52;;;;;;;22.70;11.97;;;3.40;99.90;;;;;;5074680;28;20455;-62
2022/11/23 03:11:19;;;;;;;16.00;9.53;;;3.40;99.90;;;;;;5074465;28;20443;-50
2022/11/23 03:13:46;;;;;;;36.17;11.80;;;3.40;99.90;;;;;;5074908;28;20423;-58
2022/11/23 03:16:15;;;;;;;20.30;8.73;;;3.30;99.90;;;;;;5074579;28;20481;-55
2022/11/23 03:18:42;;;;;;;16.10;10.50;;;3.30;99.90;;;;;;5074903;28;20506;-54
2022/11/23 03:21:09;;;;;;;28.17;10.40;;;3.30;99.90;;;;;;5074471;28;20450;-53
2022/11/23 03:23:36;;;;;;;19.80;9.10;;;3.30;99.90;;;;;;5074277;28;20447;-53
2022/11/23 03:26:04;;;;;;;23.63;9.97;;;3.30;99.90;;;;;;5074563;28;20419;-54
2022/11/23 03:28:31;;;;;;;17.83;9.70;;;3.30;99.90;;;;;;5074762;28;20435;-55
2022/11/23 03:30:57;;;;;;;22.90;11.87;;;3.30;99.90;;;;;;5075053;28;20478;-52
2022/11/23 03:33:26;;;;;;;18.13;9.40;;;3.20;99.90;;;;;;5074295;28;20446;-52
2022/11/23 03:35:53;;;;;;;15.67;10.90;;;3.20;99.90;;;;;;5063174;28;20534;-53
2022/11/23 03:38:20;;;;;;;20.90;9.63;;;3.20;99.90;;;;;;5075376;28;20427;-58
2022/11/23 03:40:47;;;;;;;21.57;9.63;;;3.20;99.90;;;;;;5074756;28;20439;-51
2022/11/23 03:43:14;;;;;;;21.70;9.83;;;3.20;99.90;;;;;;5073971;28;20478;-54
2022/11/23 03:45:41;;;;;;;21.60;9.93;;;3.20;99.90;;;;;;5074977;28;20443;-54
2022/11/23 03:48:08;;;;;;;27.57;10.57;;;3.10;99.90;;;;;;5074592;28;20459;-55
2022/11/23 03:50:36;;;;;;;16.57;10.60;;;3.10;99.90;;;;;;5074722;28;20538;-55
2022/11/23 03:53:04;;;;;;;24.30;11.50;;;3.10;99.90;;;;;;5074671;28;20435;-58
2022/11/23 03:55:31;;;;;;;24.47;10.30;;;3.00;99.90;;;;;;5074546;28;20475;-56
2022/11/23 03:57:59;;;;;;;26.37;13.70;;;3.00;99.90;;;;;;5074306;28;20440;-55
2022/11/23 04:00:26;;;;;;;17.93;10.67;;;3.00;99.90;;;;;;5074911;28;20455;-52
2022/11/23 04:02:53;;;;;;;15.17;8.93;;;3.00;99.90;;;;;;5064377;28;20435;-56
2022/11/23 04:05:20;;;;;;;16.10;8.57;;;3.00;99.90;;;;;;5072923;28;20935;-60
2022/11/23 04:07:49;;;;;;;24.20;9.63;;;3.00;99.90;;;;;;5074302;28;20475;-59
2022/11/23 04:10:17;;;;;;;25.70;11.47;;;3.00;99.90;;;;;;5074512;28;20450;-54
2022/11/23 04:12:44;;;;;;;14.77;8.50;;;3.00;99.90;;;;;;5074514;28;20475;-52
2022/11/23 04:15:11;;;;;;;25.27;10.67;;;3.00;99.90;;;;;;5075053;28;20450;-53
2022/11/23 04:17:38;;;;;;;18.63;9.73;;;3.00;99.90;;;;;;5075750;28;20494;-51
2022/11/23 04:20:07;;;;;;;17.27;8.80;;;3.00;99.90;;;;;;5075906;28;20455;-51
2022/11/23 04:22:34;;;;;;;23.53;10.13;;;3.00;99.90;;;;;;5074524;28;20442;-53
2022/11/23 04:25:02;;;;;;;24.23;10.30;;;3.00;99.90;;;;;;5074358;28;20471;-46
2022/11/23 04:27:29;;;;;;;24.70;9.13;;;2.90;99.90;;;;;;5063260;28;20467;-57
2022/11/23 04:29:56;;;;;;;14.17;8.50;;;2.90;99.90;;;;;;5074318;28;20474;-55
2022/11/23 04:32:23;;;;;;;17.10;9.40;;;2.90;99.90;;;;;;5074176;28;20931;-56
2022/11/23 04:34:51;;;;;;;20.10;10.27;;;2.80;99.90;;;;;;5074780;28;20439;-55
2022/11/23 04:37:17;;;;;;;15.73;8.53;;;2.80;99.90;;;;;;5073876;28;20985;-58
2022/11/23 04:39:44;;;;;;;20.33;8.83;;;2.80;99.90;;;;;;5074623;28;20459;-52
2022/11/23 04:42:13;;;;;;;16.17;8.43;;;2.80;99.90;;;;;;5074265;28;20477;-53
2022/11/23 04:44:40;;;;;;;19.50;8.53;;;2.80;99.90;;;;;;5074164;28;20439;-55
2022/11/23 04:47:07;;;;;;;15.60;8.87;;;2.70;99.90;;;;;;5077640;28;20439;-54
2022/11/23 04:49:34;;;;;;;34.23;13.33;;;2.80;99.90;;;;;;5077690;28;20471;-50
2022/11/23 04:52:01;;;;;;;18.13;7.53;;;2.80;99.90;;;;;;5066391;28;20443;-59
2022/11/23 04:54:28;;;;;;;22.40;8.70;;;2.80;99.90;;;;;;5070302;28;20447;-57
2022/11/23 04:56:55;;;;;;;28.30;12.47;;;2.70;99.90;;;;;;5073598;28;20486;-59
2022/11/23 04:59:23;;;;;;;19.23;10.67;;;2.70;99.90;;;;;;5077386;28;20566;-52
2022/11/23 05:01:51;;;;;;;21.33;12.27;;;2.70;99.90;;;;;;5077293;28;20471;-53
2022/11/23 05:04:18;;;;;;;18.77;10.20;;;2.70;99.90;;;;;;5077026;28;20511;-55
2022/11/23 05:06:45;;;;;;;22.27;10.97;;;2.80;99.90;;;;;;5077172;28;20455;-58
2022/11/23 05:09:12;;;;;;;24.60;12.43;;;2.80;99.90;;;;;;5077068;28;20462;-54
2022/11/23 05:11:39;;;;;;;26.07;9.33;;;2.80;99.90;;;;;;5077385;28;20439;-53
2022/11/23 05:14:06;;;;;;;16.30;10.80;;;2.80;99.90;;;;;;5076550;28;20460;-54
2022/11/23 05:16:34;;;;;;;17.57;7.33;;;2.80;99.90;;;;;;5077261;28;20486;-56
2022/11/23 05:19:01;;;;;;;17.77;10.13;;;2.80;99.90;;;;;;5077474;28;20454;-52
2022/11/23 05:21:28;;;;;;;30.27;10.53;;;2.80;99.90;;;;;;5077074;28;20431;-51
2022/11/23 05:23:55;;;;;;;16.70;8.10;;;2.80;99.90;;;;;;5076714;28;20423;-56
2022/11/23 05:26:22;;;;;;;21.10;8.47;;;2.80;99.90;;;;;;5077171;28;20478;-52
2022/11/23 05:28:49;;;;;;;17.73;9.60;;;2.80;99.90;;;;;;5076577;28;20431;-57
2022/11/23 05:31:16;;;;;;;16.50;9.50;;;2.80;99.90;;;;;;5067594;28;20512;-57
2022/11/23 05:33:44;;;;;;;19.27;9.67;;;2.80;99.90;;;;;;5076967;28;20443;-55
2022/11/23 05:36:12;;;;;;;23.47;10.40;;;2.90;99.90;;;;;;5071938;28;20479;-58
2022/11/23 05:38:39;;;;;;;20.03;10.93;;;2.90;99.90;;;;;;5070686;28;20478;-58
2022/11/23 05:41:07;;;;;;;34.07;10.73;;;3.00;99.90;;;;;;5076327;28;20447;-54
2022/11/23 05:43:35;;;;;;;17.40;8.10;;;3.00;99.90;;;;;;5067701;28;20497;-58
2022/11/23 05:46:02;;;;;;;19.53;10.37;;;3.00;99.90;;;;;;5075290;28;20434;-54
2022/11/23 05:48:29;;;;;;;20.40;10.30;;;2.90;99.90;;;;;;5077015;28;20443;-57
2022/11/23 05:50:57;;;;;;;19.70;10.40;;;3.00;99.90;;;;;;5076564;28;20463;-52
2022/11/23 05:53:24;;;;;;;21.60;8.73;;;3.00;99.90;;;;;;5076406;28;20447;-56
2022/11/23 05:55:51;;;;;;;20.97;8.87;;;3.00;99.90;;;;;;5075685;28;20803;-54
2022/11/23 05:58:18;;;;;;;21.53;10.63;;;3.10;99.90;;;;;;5076368;28;20447;-58
2022/11/23 06:00:45;;;;;;;14.93;7.23;;;3.00;99.90;;;;;;5076318;28;20431;-55
2022/11/23 06:03:12;;;;;;;15.47;9.23;;;3.10;99.90;;;;;;5076480;28;20467;-53
2022/11/23 06:05:39;;;;;;;20.87;9.60;;;3.10;99.90;;;;;;5076331;28;20469;-54
2022/11/23 06:08:07;;;;;;;22.97;10.70;;;3.10;99.90;;;;;;5076509;28;20435;-56
2022/11/23 06:10:34;;;;;;;16.03;8.33;;;3.10;99.90;;;;;;5076771;28;20403;-49
2022/11/23 06:13:05;;;;;;;22.87;11.67;;;3.10;99.90;;;;;;5076548;28;20458;-49
2022/11/23 06:15:31;;;;;;;22.00;9.07;;;3.10;99.90;;;;;;5066215;28;20482;-55
2022/11/23 06:18:02;;;;;;;14.57;8.47;;;3.10;99.90;;;;;;5077086;28;20592;-57
2022/11/23 06:20:29;;;;;;;17.63;8.70;;;3.00;99.90;;;;;;5076775;28;21270;-54
2022/11/23 06:22:57;;;;;;;19.43;10.63;;;3.00;99.90;;;;;;5076123;28;20470;-52
2022/11/23 06:25:25;;;;;;;18.33;8.70;;;3.00;99.90;;;;;;5076443;28;20459;-53
2022/11/23 06:27:54;;;;;;;21.40;8.97;;;3.00;99.90;;;;;;5076035;28;20455;-53
2022/11/23 06:30:21;;;;;;;20.03;10.90;;;2.90;99.90;;;;;;5076393;28;20495;-59
2022/11/23 06:32:48;;;;;;;22.87;10.00;;;2.90;99.90;;;;;;5076517;28;20451;-58
2022/11/23 06:35:15;;;;;;;16.10;9.30;;;2.90;99.90;;;;;;5076999;28;20424;-58
2022/11/23 06:37:42;;;;;;;17.93;9.53;;;3.00;99.90;;;;;;5076648;28;20489;-55
2022/11/23 06:40:11;;;;;;;19.60;9.10;;;2.90;99.90;;;;;;5076759;28;20463;-56
2022/11/23 06:42:39;;;;;;;18.37;11.70;;;2.90;99.90;;;;;;5076447;28;20439;-57
2022/11/23 06:45:07;;;;;;;20.93;9.10;;;2.90;99.90;;;;;;5076170;28;20501;-52
2022/11/23 06:47:34;;;;;;;15.80;9.63;;;2.90;99.90;;;;;;5076103;28;20466;-56
2022/11/23 06:50:01;;;;;;;19.77;9.50;;;2.90;99.90;;;;;;5075456;28;20435;-58
2022/11/23 06:52:28;;;;;;;17.63;10.00;;;2.90;99.90;;;;;;5075278;28;20423;-57
2022/11/23 06:54:55;;;;;;;12.70;7.27;;;2.90;99.90;;;;;;5075411;28;20474;-52
2022/11/23 06:57:22;;;;;;;26.47;9.17;;;2.70;99.90;;;;;;5074606;28;21017;-55
2022/11/23 06:59:50;;;;;;;20.93;8.27;;;2.80;99.90;;;;;;5075858;28;20450;-59
2022/11/23 07:02:17;;;;;;;14.10;7.03;;;2.80;99.90;;;;;;5075673;28;20513;-60
2022/11/23 07:04:44;;;;;;;19.93;10.17;;;2.80;99.90;;;;;;5075058;28;20458;-56
2022/11/23 07:07:11;;;;;;;14.40;8.80;;;2.80;99.90;;;;;;5074878;28;20443;-54
2022/11/23 07:09:38;;;;;;;19.37;9.20;;;2.80;99.90;;;;;;5074587;28;20454;-51
2022/11/23 07:12:05;;;;;;;13.60;7.50;;;2.80;99.90;;;;;;5064426;28;20498;-53
2022/11/23 07:14:32;;;;;;;20.80;9.97;;;2.80;99.90;;;;;;5075131;28;20455;-53
2022/11/23 07:17:00;;;;;;;24.50;11.40;;;2.80;99.90;;;;;;5075372;28;20754;-58
2022/11/23 07:19:30;;;;;;;24.20;10.00;;;2.70;99.90;;;;;;5075139;28;20769;-52
2022/11/23 07:21:57;;;;;;;21.33;10.70;;;2.80;99.90;;;;;;5074950;28;20495;-54
2022/11/23 07:24:24;;;;;;;18.37;10.20;;;2.80;99.90;;;;;;5075110;28;20419;-56
2022/11/23 07:26:51;;;;;;;18.17;10.20;;;2.80;99.90;;;;;;5075042;28;20439;-52
2022/11/23 07:29:18;;;;;;;24.43;10.73;;;2.80;99.90;;;;;;5075052;28;20443;-54
2022/11/23 07:31:45;;;;;;;22.30;12.80;;;2.80;99.90;;;;;;5074607;28;20443;-55
2022/11/23 07:34:13;;;;;;;15.90;8.33;;;2.80;99.90;;;;;;5075056;28;20489;-55
2022/11/23 07:36:40;;;;;;;22.70;10.30;;;2.80;99.90;;;;;;5075157;28;20482;-53
2022/11/23 07:39:07;;;;;;;21.63;9.43;;;2.80;99.90;;;;;;5075206;28;20500;-53
2022/11/23 07:41:37;;;;;;;26.37;11.20;;;2.80;99.90;;;;;;5075270;28;20424;-52
2022/11/23 07:44:04;;;;;;;15.67;11.13;;;2.80;99.90;;;;;;5075345;28;20439;-46
2022/11/23 07:46:31;;;;;;;23.57;10.80;;;2.90;99.90;;;;;;5075663;28;20459;-55
2022/11/23 07:49:01;;;;;;;25.77;10.30;;;2.90;99.90;;;;;;5075235;28;20443;-49
2022/11/23 07:51:29;;;;;;;13.47;7.50;;;2.90;99.90;;;;;;5074929;28;20486;-56
2022/11/23 07:53:56;;;;;;;16.10;8.50;;;2.90;99.90;;;;;;5075135;28;20457;-57
2022/11/23 07:56:23;;;;;;;26.60;11.23;;;3.00;99.90;;;;;;5074956;28;20478;-50
2022/11/23 07:58:50;;;;;;;24.20;12.13;;;3.00;99.90;;;;;;5075042;28;20435;-54
2022/11/23 08:01:17;;;;;;;18.20;10.40;;;3.00;99.90;;;;;;5074885;28;20463;-53
2022/11/23 08:03:45;;;;;;;14.03;9.17;;;3.10;99.90;;;;;;5075415;28;20497;-52
2022/11/23 08:06:13;;;;;;;17.63;9.40;;;3.10;99.90;;;;;;5074704;28;20443;-53
2022/11/23 08:08:42;;;;;;;19.90;9.00;;;3.20;99.90;;;;;;5070062;28;20439;-54
2022/11/23 08:11:13;;;;;;;24.47;11.10;;;3.20;99.90;;;;;;5074698;28;20482;-55
2022/11/23 08:13:40;;;;;;;24.60;9.83;;;3.30;99.90;;;;;;5146760;23;20484;-48
2022/11/23 08:16:10;;;;;;;18.53;9.20;;;3.40;99.90;;;;;;5054711;28;20444;-47
2022/11/23 08:18:37;;;;;;;21.13;9.27;;;3.40;99.90;;;;;;5055360;28;20464;-48
2022/11/23 08:21:04;;;;;;;16.90;10.60;;;3.50;99.90;;;;;;5051775;28;20436;-54
2022/11/23 08:23:31;;;;;;;27.53;9.30;;;3.50;99.90;;;;;;5052799;28;20468;-53
2022/11/23 08:26:03;;;;;;;18.77;8.20;;;3.50;99.90;;;;;;5058302;28;20535;-46
2022/11/23 08:28:30;;;;;;;18.90;10.50;;;3.60;99.90;;;;;;5058163;28;20464;-54
2022/11/23 08:31:05;;;;;;;18.80;9.50;;;3.70;99.90;;;;;;5052674;28;20893;-54
2022/11/23 08:33:32;;;;;;;20.80;10.43;;;3.80;99.90;;;;;;5059374;28;20432;-54
2022/11/23 08:36:04;;;;;;;16.33;8.30;;;3.90;99.90;;;;;;5059274;28;20506;-48
2022/11/23 08:38:31;;;;;;;21.50;8.90;;;4.00;99.90;;;;;;5059071;28;20891;-52
2022/11/23 08:41:00;;;;;;;22.57;8.97;;;4.20;99.90;;;;;;5058882;28;20424;-51
2022/11/23 08:43:27;;;;;;;22.10;10.53;;;4.30;99.90;;;;;;5059632;28;20439;-52
2022/11/23 08:45:54;;;;;;;19.20;9.83;;;4.30;99.90;;;;;;5059854;28;20447;-48
2022/11/23 08:48:21;;;;;;;20.70;8.50;;;4.20;99.90;;;;;;5059294;28;20476;-48
2022/11/23 08:50:49;;;;;;;19.37;9.40;;;4.30;99.90;;;;;;5059884;28;20478;-51
2022/11/23 08:53:16;;;;;;;14.10;7.90;;;4.30;99.90;;;;;;5059397;28;20486;-46
2022/11/23 08:55:46;;;;;;;22.70;9.30;;;4.40;99.90;;;;;;5059801;28;20424;-49
2022/11/23 08:58:14;;;;;;;19.07;11.17;;;4.50;99.90;;;;;;5059496;28;20467;-49
2022/11/23 09:00:41;;;;;;;19.20;10.07;;;4.50;99.90;;;;;;5059495;28;20468;-47
2022/11/23 09:03:08;;;;;;;20.60;8.73;;;4.70;99.90;;;;;;5058964;28;20440;-44
2022/11/23 09:05:38;;;;;;;16.40;9.47;;;4.80;99.90;;;;;;5059115;28;20471;-52
2022/11/23 09:08:06;;;;;;;15.83;8.20;;;4.90;99.90;;;;;;5060348;28;20448;-58
2022/11/23 09:10:32;;;;;;;20.43;10.03;;;4.90;99.90;;;;;;5059953;28;20504;-56
2022/11/23 09:13:02;;;;;;;18.23;9.87;;;5.00;99.90;;;;;;5060003;28;20462;-61
2022/11/23 09:15:37;;;;;;;27.87;12.60;;;5.00;99.90;;;;;;5050049;28;20523;-64
2022/11/23 09:18:11;;;;;;;23.80;11.43;;;5.10;99.90;;;;;;5060193;28;20472;-48
2022/11/23 09:20:44;;;;;;;18.03;10.50;;;5.20;99.90;;;;;;5060007;28;20428;-52
2022/11/23 09:23:11;;;;;;;19.57;10.10;;;5.50;99.90;;;;;;5059704;28;20438;-55
2022/11/23 09:25:38;;;;;;;19.40;9.50;;;6.00;99.90;;;;;;5059575;28;20463;-54
2022/11/23 09:28:05;;;;;;;18.57;9.50;;;6.50;99.90;;;;;;5059286;28;20447;-54
2022/11/23 09:30:34;;;;;;;14.13;10.33;;;6.90;99.90;;;;;;5052402;28;20537;-55
2022/11/23 09:33:07;;;;;;;31.17;13.30;;;7.10;99.90;;;;;;5057870;28;20475;-51
2022/11/23 09:35:39;;;;;;;19.03;9.00;;;7.20;99.90;;;;;;5059189;28;20490;-60
2022/11/23 09:38:06;;;;;;;19.53;10.40;;;7.10;99.90;;;;;;5058725;28;20471;-56
2022/11/23 09:40:36;;;;;;;17.27;9.40;;;7.20;99.90;;;;;;5058977;28;20471;-61
2022/11/23 09:43:23;;;;;;;18.30;9.93;;;7.60;99.90;;;;;;5058805;28;20474;-61
2022/11/23 09:45:54;;;;;;;18.73;9.57;;;8.00;99.90;;;;;;5054640;28;20428;-61
2022/11/23 09:48:43;;;;;;;19.07;9.33;;;8.30;99.90;;;;;;5048876;28;20462;-60
2022/11/23 09:51:19;;;;;;;14.70;7.87;;;8.80;99.90;;;;;;5057864;28;20459;-55
2022/11/23 09:53:49;;;;;;;18.77;10.77;;;8.70;99.90;;;;;;5058407;28;20424;-52
2022/11/23 09:56:20;;;;;;;16.93;8.80;;;8.90;99.90;;;;;;5057726;28;20456;-60
2022/11/23 09:58:48;;;;;;;15.90;9.07;;;9.00;99.90;;;;;;5057401;28;20457;-55
2022/11/23 10:01:17;;;;;;;21.93;9.67;;;9.10;99.90;;;;;;5057155;28;20510;-59
2022/11/23 10:03:45;;;;;;;20.10;10.80;;;9.30;99.90;;;;;;5057656;28;20558;-54
2022/11/23 10:06:20;;;;;;;23.23;10.53;;;9.70;99.90;;;;;;5057183;28;20471;-61
2022/11/23 10:09:06;;;;;;;14.60;8.40;;;10.40;99.90;;;;;;5058014;28;20412;-63
2022/11/23 10:12:03;;;;;;;14.50;8.73;;;11.00;99.90;;;;;;5056934;28;20405;-60
2022/11/23 10:14:48;;;;;;;16.93;9.17;;;11.80;99.90;;;;;;5057757;28;20479;-59
2022/11/23 10:17:25;;;;;;;20.00;9.80;;;12.10;99.90;;;;;;5057242;28;20429;-53
2022/11/23 10:20:16;;;;;;;13.83;9.73;;;12.20;99.90;;;;;;5056748;28;20956;-59
2022/11/23 10:22:49;;;;;;;15.53;8.20;;;12.10;99.90;;;;;;5057825;28;20426;-55
2022/11/23 10:25:21;;;;;;;16.47;8.67;;;12.00;99.90;;;;;;5057595;28;20442;-59
2022/11/23 10:27:50;;;;;;;14.93;8.60;;;11.90;99.90;;;;;;5057797;28;20492;-56
2022/11/23 10:30:19;;;;;;;21.13;9.07;;;11.60;99.90;;;;;;5057226;28;20503;-58
2022/11/23 10:32:52;;;;;;;14.17;8.30;;;11.10;99.90;;;;;;5057213;28;20524;-57
2022/11/23 10:35:31;;;;;;;34.40;17.83;;;10.60;99.90;;;;;;5048073;28;20429;-61
2022/11/23 10:38:11;;;;;;;13.43;9.50;;;10.20;99.90;;;;;;5056980;28;20514;-59
2022/11/23 10:40:43;;;;;;;14.50;8.87;;;9.90;99.90;;;;;;5056491;28;20440;-62
2022/11/23 10:43:15;;;;;;;13.03;8.57;;;9.60;99.90;;;;;;5055665;28;20443;-60
2022/11/23 10:45:43;;;;;;;20.40;9.20;;;9.30;99.90;;;;;;5056788;28;20447;-59
2022/11/23 10:48:11;;;;;;;13.27;7.67;;;9.10;99.90;;;;;;5056506;28;20451;-59
2022/11/23 10:50:43;;;;;;;18.37;9.60;;;8.90;99.90;;;;;;5055866;28;20448;-58
2022/11/23 10:53:27;;;;;;;21.30;8.70;;;8.60;99.90;;;;;;5056097;28;20431;-58
2022/11/23 10:55:57;;;;;;;15.30;9.27;;;8.40;99.90;;;;;;5055658;28;20459;-60
2022/11/23 10:58:26;;;;;;;19.20;9.07;;;8.20;99.90;;;;;;5056096;28;20463;-57
2022/11/23 11:00:59;;;;;;;15.63;8.33;;;8.10;99.90;;;;;;5056863;28;20451;-58
2022/11/23 11:03:32;;;;;;;18.63;10.47;;;8.00;99.90;;;;;;5056620;28;20464;-58
2022/11/23 11:06:00;;;;;;;13.17;8.13;;;7.90;99.90;;;;;;5055913;28;20462;-54
2022/11/23 11:08:30;;;;;;;17.43;8.27;;;7.80;99.90;;;;;;5056014;28;20440;-53
2022/11/23 11:10:59;;;;;;;15.40;8.43;;;7.80;99.90;;;;;;5055276;28;20432;-55
2022/11/23 11:13:32;;;;;;;13.57;7.80;;;7.80;99.90;;;;;;5055400;28;20487;-58
2022/11/23 11:16:01;;;;;;;15.90;9.07;;;7.80;99.90;;;;;;5055598;28;20464;-60
2022/11/23 11:18:35;;;;;;;16.70;8.70;;;7.80;99.90;;;;;;5055241;28;20828;-60
2022/11/23 11:21:05;;;;;;;15.37;7.37;;;7.80;99.90;;;;;;5054475;28;20456;-59
2022/11/23 11:23:34;;;;;;;26.17;9.53;;;7.80;99.90;;;;;;5055303;28;20435;-60
2022/11/23 11:26:21;;;;;;;16.83;9.23;;;7.90;99.90;;;;;;5055054;28;20436;-56
2022/11/23 11:28:51;;;;;;;20.97;8.30;;;7.90;99.90;;;;;;5051208;28;20464;-58
2022/11/23 11:31:51;;;;;;;15.87;8.67;;;7.90;99.90;;;;;;5049750;28;20475;-51
2022/11/23 11:34:25;;;;;;;22.53;9.60;;;7.90;99.90;;;;;;5055275;28;20460;-58
2022/11/23 11:37:01;;;;;;;16.90;8.93;;;7.90;99.90;;;;;;5055598;28;20425;-56
2022/11/23 11:39:35;;;;;;;19.60;9.80;;;8.00;99.90;;;;;;5055115;28;20468;-58
2022/11/23 11:42:12;;;;;;;16.87;9.40;;;8.00;99.90;;;;;;5055796;28;20428;-53
2022/11/23 11:44:43;;;;;;;11.73;6.87;;;8.00;99.90;;;;;;5055648;28;20424;-59
2022/11/23 11:47:23;;;;;;;15.40;8.10;;;8.00;99.90;;;;;;5055582;28;20510;-57
2022/11/23 11:49:56;;;;;;;14.57;7.63;;;8.00;99.90;;;;;;5055284;28;20427;-54
2022/11/23 11:52:28;;;;;;;17.43;8.23;;;8.10;99.90;;;;;;5054457;28;20523;-57
2022/11/23 11:55:01;;;;;;;16.43;9.60;;;8.10;99.90;;;;;;5056990;28;20432;-52
2022/11/23 11:57:35;;;;;;;20.27;12.60;;;8.10;99.90;;;;;;5059352;28;20493;-61
2022/11/23 12:00:07;;;;;;;18.40;8.50;;;8.10;99.90;;;;;;5058838;28;20809;-59
2022/11/23 12:02:40;;;;;;;13.87;9.33;;;8.20;99.90;;;;;;5059523;28;20455;-55
2022/11/23 12:05:17;;;;;;;17.53;8.53;;;8.20;99.90;;;;;;5059566;28;20468;-60
2022/11/23 12:07:58;;;;;;;20.60;9.03;;;8.20;99.90;;;;;;5059477;28;20455;-54
2022/11/23 12:10:29;;;;;;;17.20;7.83;;;8.20;99.90;;;;;;5059248;28;20436;-56
2022/11/23 12:12:56;;;;;;;14.70;8.50;;;7.60;99.90;;;;;;5059416;28;20426;-60
2022/11/23 12:15:34;;;;;;;15.40;8.00;;;8.20;99.90;;;;;;5059939;28;20443;-61
2022/11/23 12:18:43;;;;;;;14.17;7.27;;;8.20;99.90;;;;;;5060202;28;20459;-56
2022/11/23 12:21:25;;;;;;;16.13;8.50;;;8.30;99.90;;;;;;5059426;28;20439;-54
2022/11/23 12:24:06;;;;;;;18.93;6.80;;;8.30;99.90;;;;;;5059397;28;20467;-56
2022/11/23 12:26:43;;;;;;;19.43;8.50;;;8.20;99.90;;;;;;5059397;28;20421;-62
2022/11/23 12:29:31;;;;;;;16.50;8.73;;;8.20;99.90;;;;;;5059009;28;20463;-56
2022/11/23 12:32:09;;;;;;;15.10;7.97;;;8.20;99.90;;;;;;5059345;28;20451;-54
2022/11/23 12:34:52;;;;;;;18.93;8.33;;;8.20;99.90;;;;;;5059328;28;20416;-58
2022/11/23 12:37:31;;;;;;;17.07;9.10;;;8.20;99.90;;;;;;5059344;28;20428;-58
2022/11/23 12:40:15;;;;;;;19.00;9.50;;;8.20;99.90;;;;;;5059314;28;20459;-59
2022/11/23 12:42:48;;;;;;;11.70;7.27;;;8.20;99.90;;;;;;5058476;28;20464;-57
2022/11/23 12:45:37;;;;;;;14.40;7.97;;;8.30;99.90;;;;;;5059726;28;20484;-59
2022/11/23 12:48:17;;;;;;;11.60;8.30;;;8.30;99.90;;;;;;5059137;28;20467;-58
2022/11/23 12:50:48;;;;;;;15.20;7.90;;;8.30;99.90;;;;;;5059095;28;20507;-58
2022/11/23 12:53:34;;;;;;;15.37;8.83;;;8.30;99.90;;;;;;5059504;28;20463;-59
2022/11/23 12:56:10;;;;;;;15.43;8.67;;;8.30;99.90;;;;;;5059498;28;20464;-60
2022/11/23 12:58:39;;;;;;;17.60;9.80;;;8.40;99.90;;;;;;5059414;28;20467;-55
2022/11/23 13:01:11;;;;;;;17.13;9.00;;;8.30;99.90;;;;;;5059420;28;20487;-57